sensor_id;sensor_type;location;lat;lon;timestamp;pressure;altitude;pressure_sealevel;temperature;humidity
18167;BME280;9208;42.688;23.404;2023-02-03T00:00:57;95710.56;;;5.54;98.32
18167;BME280;9208;42.688;23.404;2023-02-03T00:03:23;95712.59;;;5.63;98.24
18167;BME280;9208;42.688;23.404;2023-02-03T00:05:48;95708.72;;;5.51;99.34
18167;BME280;9208;42.688;23.404;2023-02-03T00:08:14;95706.00;;;5.51;99.87
18167;BME280;9208;42.688;23.404;2023-02-03T00:10:41;95710.56;;;5.54;99.85
18167;BME280;9208;42.688;23.404;2023-02-03T00:13:07;95713.19;;;5.45;100.00
18167;BME280;9208;42.688;23.404;2023-02-03T00:15:33;95714.41;;;5.44;100.00
18167;BME280;9208;42.688;23.404;2023-02-03T00:17:59;95721.91;;;5.40;100.00
18167;BME280;9208;42.688;23.404;2023-02-03T00:20:24;95725.28;;;5.32;100.00
18167;BME280;9208;42.688;23.404;2023-02-03T00:22:50;95716.13;;;5.38;100.00
18167;BME280;9208;42.688;23.404;2023-02-03T00:25:16;95725.41;;;5.28;100.00
18167;BME280;9208;42.688;23.404;2023-02-03T00:27:43;95726.91;;;5.29;100.00
18167;BME280;9208;42.688;23.404;2023-02-03T00:30:09;95726.34;;;5.34;100.00
18167;BME280;9208;42.688;23.404;2023-02-03T00:32:35;95731.59;;;5.29;100.00
18167;BME280;9208;42.688;23.404;2023-02-03T00:35:01;95724.53;;;5.31;100.00
18167;BME280;9208;42.688;23.404;2023-02-03T00:37:26;95732.03;;;5.27;100.00
18167;BME280;9208;42.688;23.404;2023-02-03T00:39:52;95739.53;;;5.23;100.00
18167;BME280;9208;42.688;23.404;2023-02-03T00:42:17;95749.53;;;5.26;100.00
18167;BME280;9208;42.688;23.404;2023-02-03T00:44:43;95747.38;;;5.21;100.00
18167;BME280;9208;42.688;23.404;2023-02-03T00:47:08;95743.03;;;5.24;100.00
18167;BME280;9208;42.688;23.404;2023-02-03T00:49:34;95755.97;;;5.20;100.00
18167;BME280;9208;42.688;23.404;2023-02-03T00:52:00;95756.03;;;5.16;100.00
18167;BME280;9208;42.688;23.404;2023-02-03T00:54:25;95749.88;;;5.16;100.00
18167;BME280;9208;42.688;23.404;2023-02-03T00:56:51;95748.56;;;5.20;100.00
18167;BME280;9208;42.688;23.404;2023-02-03T00:59:16;95755.97;;;5.20;100.00
18167;BME280;9208;42.688;23.404;2023-02-03T01:01:42;95762.38;;;5.13;100.00
18167;BME280;9208;42.688;23.404;2023-02-03T01:04:07;95755.84;;;5.11;100.00
18167;BME280;9208;42.688;23.404;2023-02-03T01:06:33;95752.69;;;5.12;100.00
18167;BME280;9208;42.688;23.404;2023-02-03T01:09:01;95758.09;;;5.00;100.00
18167;BME280;9208;42.688;23.404;2023-02-03T01:11:27;95765.28;;;4.94;100.00
18167;BME280;9208;42.688;23.404;2023-02-03T01:13:54;95754.00;;;4.95;100.00
18167;BME280;9208;42.688;23.404;2023-02-03T01:16:21;95769.28;;;4.89;100.00
18167;BME280;9208;42.688;23.404;2023-02-03T01:18:47;95766.44;;;4.80;100.00
18167;BME280;9208;42.688;23.404;2023-02-03T01:21:16;95759.84;;;4.81;100.00
18167;BME280;9208;42.688;23.404;2023-02-03T01:23:42;95749.72;;;4.69;100.00
18167;BME280;9208;42.688;23.404;2023-02-03T01:26:11;95754.16;;;4.63;100.00
18167;BME280;9208;42.688;23.404;2023-02-03T01:28:38;95746.88;;;4.60;100.00
18167;BME280;9208;42.688;23.404;2023-02-03T01:31:15;95752.63;;;4.62;100.00
18167;BME280;9208;42.688;23.404;2023-02-03T01:33:41;95752.44;;;4.69;100.00
18167;BME280;9208;42.688;23.404;2023-02-03T01:36:10;95754.28;;;4.72;100.00
18167;BME280;9208;42.688;23.404;2023-02-03T01:38:37;95754.59;;;4.62;100.00
18167;BME280;9208;42.688;23.404;2023-02-03T01:41:05;95765.34;;;4.65;100.00
18167;BME280;9208;42.688;23.404;2023-02-03T01:43:39;95764.06;;;4.70;100.00
18167;BME280;9208;42.688;23.404;2023-02-03T01:46:35;95764.50;;;4.68;100.00
18167;BME280;9208;42.688;23.404;2023-02-03T01:51:41;95773.19;;;4.63;100.00
18167;BME280;9208;42.688;23.404;2023-02-03T01:54:12;95769.44;;;4.57;100.00
18167;BME280;9208;42.688;23.404;2023-02-03T01:56:44;95770.41;;;4.51;100.00
18167;BME280;9208;42.688;23.404;2023-02-03T01:59:15;95774.56;;;4.55;100.00
18167;BME280;9208;42.688;23.404;2023-02-03T02:01:43;95775.84;;;4.51;100.00
18167;BME280;9208;42.688;23.404;2023-02-03T02:04:09;95766.41;;;4.55;100.00
18167;BME280;9208;42.688;23.404;2023-02-03T02:06:35;95766.19;;;4.50;100.00
18167;BME280;9208;42.688;23.404;2023-02-03T02:09:01;95766.94;;;4.50;100.00
18167;BME280;9208;42.688;23.404;2023-02-03T02:11:27;95769.66;;;4.50;100.00
18167;BME280;9208;42.688;23.404;2023-02-03T02:13:58;95766.59;;;4.48;100.00
18167;BME280;9208;42.688;23.404;2023-02-03T02:16:40;95762.38;;;4.47;100.00
18167;BME280;9208;42.688;23.404;2023-02-03T02:27:23;95780.66;;;4.31;100.00
18167;BME280;9208;42.688;23.404;2023-02-03T02:32:59;95791.81;;;4.20;100.00
18167;BME280;9208;42.688;23.404;2023-02-03T02:46:54;95766.19;;;4.21;100.00
18167;BME280;9208;42.688;23.404;2023-02-03T02:49:28;95780.38;;;4.41;100.00
18167;BME280;9208;42.688;23.404;2023-02-03T02:51:56;95779.38;;;4.35;100.00
18167;BME280;9208;42.688;23.404;2023-02-03T02:54:26;95778.19;;;4.36;100.00
18167;BME280;9208;42.688;23.404;2023-02-03T02:56:55;95793.03;;;4.32;100.00
18167;BME280;9208;42.688;23.404;2023-02-03T02:59:23;95787.22;;;4.17;100.00
18167;BME280;9208;42.688;23.404;2023-02-03T03:01:49;95795.81;;;4.16;100.00
18167;BME280;9208;42.688;23.404;2023-02-03T03:04:19;95792.84;;;4.10;100.00
18167;BME280;9208;42.688;23.404;2023-02-03T03:06:50;95803.50;;;4.17;100.00
18167;BME280;9208;42.688;23.404;2023-02-03T03:09:21;95797.13;;;4.24;100.00
18167;BME280;9208;42.688;23.404;2023-02-03T03:11:51;95802.19;;;4.09;100.00
18167;BME280;9208;42.688;23.404;2023-02-03T03:14:19;95802.41;;;4.15;100.00
18167;BME280;9208;42.688;23.404;2023-02-03T03:16:53;95810.38;;;4.06;100.00
18167;BME280;9208;42.688;23.404;2023-02-03T03:19:27;95812.25;;;4.09;100.00
18167;BME280;9208;42.688;23.404;2023-02-03T03:21:59;95816.84;;;3.96;100.00
18167;BME280;9208;42.688;23.404;2023-02-03T03:24:31;95814.97;;;4.09;100.00
18167;BME280;9208;42.688;23.404;2023-02-03T03:27:01;95834.22;;;4.14;100.00
18167;BME280;9208;42.688;23.404;2023-02-03T03:29:41;95839.66;;;3.98;100.00
18167;BME280;9208;42.688;23.404;2023-02-03T03:32:08;95829.91;;;4.01;100.00
18167;BME280;9208;42.688;23.404;2023-02-03T03:34:34;95829.72;;;4.08;100.00
18167;BME280;9208;42.688;23.404;2023-02-03T03:39:44;95845.66;;;4.22;100.00
18167;BME280;9208;42.688;23.404;2023-02-03T03:42:28;95847.84;;;4.11;100.00
18167;BME280;9208;42.688;23.404;2023-02-03T03:45:03;95839.28;;;4.12;100.00
18167;BME280;9208;42.688;23.404;2023-02-03T03:47:46;95847.44;;;4.12;100.00
18167;BME280;9208;42.688;23.404;2023-02-03T03:50:18;95850.16;;;4.12;100.00
18167;BME280;9208;42.688;23.404;2023-02-03T03:52:47;95853.22;;;4.14;100.00
18167;BME280;9208;42.688;23.404;2023-02-03T03:55:15;95858.13;;;4.19;100.00
18167;BME280;9208;42.688;23.404;2023-02-03T04:00:31;95873.88;;;4.24;100.00
18167;BME280;9208;42.688;23.404;2023-02-03T04:03:03;95867.34;;;4.22;100.00
18167;BME280;9208;42.688;23.404;2023-02-03T04:05:31;95859.47;;;4.27;100.00
18167;BME280;9208;42.688;23.404;2023-02-03T04:07:58;95878.69;;;4.33;100.00
18167;BME280;9208;42.688;23.404;2023-02-03T04:10:34;95871.66;;;4.35;100.00
18167;BME280;9208;42.688;23.404;2023-02-03T04:13:00;95877.44;;;4.37;100.00
18167;BME280;9208;42.688;23.404;2023-02-03T04:15:26;95884.47;;;4.35;100.00
18167;BME280;9208;42.688;23.404;2023-02-03T04:17:52;95881.91;;;4.44;100.00
18167;BME280;9208;42.688;23.404;2023-02-03T04:20:19;95886.31;;;4.38;100.00
18167;BME280;9208;42.688;23.404;2023-02-03T04:22:45;95891.56;;;4.45;100.00
18167;BME280;9208;42.688;23.404;2023-02-03T04:25:11;95892.94;;;4.37;100.00
18167;BME280;9208;42.688;23.404;2023-02-03T04:27:36;95895.47;;;4.44;100.00
18167;BME280;9208;42.688;23.404;2023-02-03T04:30:02;95897.94;;;4.54;100.00
18167;BME280;9208;42.688;23.404;2023-02-03T04:32:27;95904.72;;;4.46;100.00
18167;BME280;9208;42.688;23.404;2023-02-03T04:34:55;95897.53;;;4.40;100.00
18167;BME280;9208;42.688;23.404;2023-02-03T04:37:20;95888.72;;;4.36;100.00
18167;BME280;9208;42.688;23.404;2023-02-03T04:39:48;95904.16;;;4.39;100.00
18167;BME280;9208;42.688;23.404;2023-02-03T04:42:15;95902.59;;;4.38;100.00
18167;BME280;9208;42.688;23.404;2023-02-03T04:44:41;95915.44;;;4.37;100.00
18167;BME280;9208;42.688;23.404;2023-02-03T04:47:06;95918.81;;;4.41;100.00
18167;BME280;9208;42.688;23.404;2023-02-03T04:49:32;95912.88;;;4.46;100.00
18167;BME280;9208;42.688;23.404;2023-02-03T04:51:57;95911.41;;;4.42;100.00
18167;BME280;9208;42.688;23.404;2023-02-03T04:54:22;95919.91;;;4.44;100.00
18167;BME280;9208;42.688;23.404;2023-02-03T04:56:48;95921.09;;;4.43;100.00
18167;BME280;9208;42.688;23.404;2023-02-03T04:59:14;95914.13;;;4.42;100.00
18167;BME280;9208;42.688;23.404;2023-02-03T05:01:39;95916.69;;;4.33;100.00
18167;BME280;9208;42.688;23.404;2023-02-03T05:04:05;95926.59;;;4.39;100.00
18167;BME280;9208;42.688;23.404;2023-02-03T05:06:31;95925.59;;;4.33;100.00
18167;BME280;9208;42.688;23.404;2023-02-03T05:08:57;95930.09;;;4.24;100.00
18167;BME280;9208;42.688;23.404;2023-02-03T05:11:23;95934.25;;;4.28;100.00
18167;BME280;9208;42.688;23.404;2023-02-03T05:13:49;95938.16;;;4.27;100.00
18167;BME280;9208;42.688;23.404;2023-02-03T05:16:15;95938.59;;;4.26;100.00
18167;BME280;9208;42.688;23.404;2023-02-03T05:18:40;95943.25;;;4.25;100.00
18167;BME280;9208;42.688;23.404;2023-02-03T05:21:06;95944.44;;;4.24;100.00
18167;BME280;9208;42.688;23.404;2023-02-03T05:23:31;95949.44;;;4.26;100.00
18167;BME280;9208;42.688;23.404;2023-02-03T05:25:56;95961.97;;;4.20;100.00
18167;BME280;9208;42.688;23.404;2023-02-03T05:28:22;95946.06;;;4.22;100.00
18167;BME280;9208;42.688;23.404;2023-02-03T05:30:48;95943.44;;;4.18;100.00
18167;BME280;9208;42.688;23.404;2023-02-03T05:33:14;95943.91;;;4.13;100.00
18167;BME280;9208;42.688;23.404;2023-02-03T05:35:39;95945.47;;;4.14;100.00
18167;BME280;9208;42.688;23.404;2023-02-03T05:38:05;95952.00;;;4.17;100.00
18167;BME280;9208;42.688;23.404;2023-02-03T05:40:30;95948.69;;;4.09;100.00
18167;BME280;9208;42.688;23.404;2023-02-03T05:43:15;95952.13;;;4.10;100.00
18167;BME280;9208;42.688;23.404;2023-02-03T05:45:41;95952.50;;;4.12;100.00
18167;BME280;9208;42.688;23.404;2023-02-03T05:48:08;95967.16;;;4.14;100.00
18167;BME280;9208;42.688;23.404;2023-02-03T05:50:35;95954.44;;;4.11;100.00
18167;BME280;9208;42.688;23.404;2023-02-03T05:53:03;95965.13;;;4.18;100.00
18167;BME280;9208;42.688;23.404;2023-02-03T05:55:30;95960.19;;;4.13;100.00
18167;BME280;9208;42.688;23.404;2023-02-03T05:57:56;95955.44;;;4.17;100.00
18167;BME280;9208;42.688;23.404;2023-02-03T06:00:22;95956.81;;;4.09;100.00
18167;BME280;9208;42.688;23.404;2023-02-03T06:02:52;95963.25;;;4.15;100.00
18167;BME280;9208;42.688;23.404;2023-02-03T06:05:19;95959.88;;;4.11;100.00
18167;BME280;9208;42.688;23.404;2023-02-03T06:07:45;95968.00;;;4.11;100.00
18167;BME280;9208;42.688;23.404;2023-02-03T06:10:10;95965.03;;;4.06;100.00
18167;BME280;9208;42.688;23.404;2023-02-03T06:12:37;95970.81;;;4.08;100.00
18167;BME280;9208;42.688;23.404;2023-02-03T06:15:03;95978.53;;;4.09;100.00
18167;BME280;9208;42.688;23.404;2023-02-03T06:17:30;95974.25;;;4.08;100.00
18167;BME280;9208;42.688;23.404;2023-02-03T06:19:55;95974.94;;;4.12;100.00
18167;BME280;9208;42.688;23.404;2023-02-03T06:22:21;95991.00;;;4.07;100.00
18167;BME280;9208;42.688;23.404;2023-02-03T06:24:46;95969.59;;;3.93;100.00
18167;BME280;9208;42.688;23.404;2023-02-03T06:27:15;95977.75;;;4.09;100.00
18167;BME280;9208;42.688;23.404;2023-02-03T06:29:41;95984.88;;;4.03;100.00
18167;BME280;9208;42.688;23.404;2023-02-03T06:32:10;96001.06;;;4.06;100.00
18167;BME280;9208;42.688;23.404;2023-02-03T06:34:36;95999.47;;;4.09;100.00
18167;BME280;9208;42.688;23.404;2023-02-03T06:37:01;96002.69;;;4.20;100.00
18167;BME280;9208;42.688;23.404;2023-02-03T06:39:27;96011.00;;;4.13;100.00
18167;BME280;9208;42.688;23.404;2023-02-03T06:41:52;96006.94;;;4.21;100.00
18167;BME280;9208;42.688;23.404;2023-02-03T06:44:20;96007.78;;;4.18;100.00
18167;BME280;9208;42.688;23.404;2023-02-03T06:46:45;96013.53;;;4.20;100.00
18167;BME280;9208;42.688;23.404;2023-02-03T06:49:11;96017.44;;;4.19;100.00
18167;BME280;9208;42.688;23.404;2023-02-03T06:51:37;96022.94;;;4.15;100.00
18167;BME280;9208;42.688;23.404;2023-02-03T06:54:02;96018.63;;;4.18;100.00
18167;BME280;9208;42.688;23.404;2023-02-03T06:56:29;96015.09;;;4.21;100.00
18167;BME280;9208;42.688;23.404;2023-02-03T06:58:55;96020.50;;;4.37;100.00
18167;BME280;9208;42.688;23.404;2023-02-03T07:01:22;96023.47;;;4.42;100.00
18167;BME280;9208;42.688;23.404;2023-02-03T07:03:47;96019.31;;;4.22;100.00
18167;BME280;9208;42.688;23.404;2023-02-03T07:06:13;96017.38;;;4.38;100.00
18167;BME280;9208;42.688;23.404;2023-02-03T07:08:39;96006.34;;;4.45;100.00
18167;BME280;9208;42.688;23.404;2023-02-03T07:11:06;96008.91;;;4.36;99.46
18167;BME280;9208;42.688;23.404;2023-02-03T07:13:31;96015.34;;;4.42;98.78
18167;BME280;9208;42.688;23.404;2023-02-03T07:15:56;96008.81;;;4.40;99.43
18167;BME280;9208;42.688;23.404;2023-02-03T07:18:22;96003.28;;;4.43;99.57
18167;BME280;9208;42.688;23.404;2023-02-03T07:20:52;96006.84;;;4.40;99.65
18167;BME280;9208;42.688;23.404;2023-02-03T07:23:18;95995.81;;;4.47;99.91
18167;BME280;9208;42.688;23.404;2023-02-03T07:25:44;96010.91;;;4.48;99.65
18167;BME280;9208;42.688;23.404;2023-02-03T07:28:10;96000.41;;;4.50;99.13
18167;BME280;9208;42.688;23.404;2023-02-03T07:30:35;96007.97;;;4.43;100.00
18167;BME280;9208;42.688;23.404;2023-02-03T07:33:01;96016.28;;;4.52;99.74
18167;BME280;9208;42.688;23.404;2023-02-03T07:35:27;96030.09;;;4.57;99.87
18167;BME280;9208;42.688;23.404;2023-02-03T07:37:53;96018.31;;;4.64;98.94
18167;BME280;9208;42.688;23.404;2023-02-03T07:40:18;96031.88;;;4.64;97.57
18167;BME280;9208;42.688;23.404;2023-02-03T07:42:46;96021.44;;;4.62;98.47
18167;BME280;9208;42.688;23.404;2023-02-03T07:45:14;96041.13;;;4.66;97.63
18167;BME280;9208;42.688;23.404;2023-02-03T07:47:41;96032.91;;;4.70;97.41
18167;BME280;9208;42.688;23.404;2023-02-03T07:50:08;96036.72;;;4.72;96.96
18167;BME280;9208;42.688;23.404;2023-02-03T07:52:33;96030.94;;;4.70;95.73
18167;BME280;9208;42.688;23.404;2023-02-03T07:54:59;96036.22;;;4.77;95.36
18167;BME280;9208;42.688;23.404;2023-02-03T07:57:24;96038.75;;;4.84;94.63
18167;BME280;9208;42.688;23.404;2023-02-03T07:59:50;96040.09;;;4.76;94.25
18167;BME280;9208;42.688;23.404;2023-02-03T08:02:15;96034.19;;;4.81;92.62
18167;BME280;9208;42.688;23.404;2023-02-03T08:04:41;96024.16;;;4.78;94.52
18167;BME280;9208;42.688;23.404;2023-02-03T08:07:06;96041.81;;;4.86;93.21
18167;BME280;9208;42.688;23.404;2023-02-03T08:09:32;96038.31;;;4.86;93.68
18167;BME280;9208;42.688;23.404;2023-02-03T08:11:57;96040.25;;;4.85;93.19
18167;BME280;9208;42.688;23.404;2023-02-03T08:14:23;96045.03;;;4.81;92.28
18167;BME280;9208;42.688;23.404;2023-02-03T08:16:48;96041.13;;;4.82;92.57
18167;BME280;9208;42.688;23.404;2023-02-03T08:19:14;96043.31;;;4.87;91.18
18167;BME280;9208;42.688;23.404;2023-02-03T08:21:39;96058.44;;;5.04;91.08
18167;BME280;9208;42.688;23.404;2023-02-03T08:24:05;96057.50;;;5.11;90.25
18167;BME280;9208;42.688;23.404;2023-02-03T08:26:30;96050.69;;;5.03;90.00
18167;BME280;9208;42.688;23.404;2023-02-03T08:28:56;96062.03;;;5.14;89.65
18167;BME280;9208;42.688;23.404;2023-02-03T08:31:21;96060.09;;;5.14;89.14
18167;BME280;9208;42.688;23.404;2023-02-03T08:33:47;96049.13;;;5.18;88.94
18167;BME280;9208;42.688;23.404;2023-02-03T08:36:12;96055.50;;;5.27;89.24
18167;BME280;9208;42.688;23.404;2023-02-03T08:38:39;96086.06;;;5.31;87.92
18167;BME280;9208;42.688;23.404;2023-02-03T08:41:14;96088.97;;;5.24;86.76
18167;BME280;9208;42.688;23.404;2023-02-03T08:43:40;96100.41;;;5.32;86.14
18167;BME280;9208;42.688;23.404;2023-02-03T08:46:07;96094.81;;;5.39;86.67
18167;BME280;9208;42.688;23.404;2023-02-03T08:48:33;96107.19;;;5.40;85.52
18167;BME280;9208;42.688;23.404;2023-02-03T08:50:59;96114.75;;;5.48;85.77
18167;BME280;9208;42.688;23.404;2023-02-03T08:53:25;96118.28;;;5.61;84.92
18167;BME280;9208;42.688;23.404;2023-02-03T08:55:55;96123.28;;;5.63;84.36
18167;BME280;9208;42.688;23.404;2023-02-03T08:58:21;96135.75;;;5.76;82.39
18167;BME280;9208;42.688;23.404;2023-02-03T09:00:46;96138.91;;;5.75;81.89
18167;BME280;9208;42.688;23.404;2023-02-03T09:03:13;96151.72;;;5.74;81.67
18167;BME280;9208;42.688;23.404;2023-02-03T09:05:39;96143.56;;;5.74;81.88
18167;BME280;9208;42.688;23.404;2023-02-03T09:08:05;96149.63;;;5.82;80.73
18167;BME280;9208;42.688;23.404;2023-02-03T09:10:30;96136.19;;;5.75;81.61
18167;BME280;9208;42.688;23.404;2023-02-03T09:12:56;96137.56;;;5.83;80.93
18167;BME280;9208;42.688;23.404;2023-02-03T09:15:21;96109.25;;;5.80;83.73
18167;BME280;9208;42.688;23.404;2023-02-03T09:17:46;96101.31;;;5.86;84.25
18167;BME280;9208;42.688;23.404;2023-02-03T09:20:12;96103.41;;;5.94;84.33
18167;BME280;9208;42.688;23.404;2023-02-03T09:22:39;96096.09;;;5.91;84.13
18167;BME280;9208;42.688;23.404;2023-02-03T09:25:05;96085.69;;;6.02;84.74
18167;BME280;9208;42.688;23.404;2023-02-03T09:27:31;96088.88;;;6.13;84.96
18167;BME280;9208;42.688;23.404;2023-02-03T09:29:56;96109.00;;;6.16;83.21
18167;BME280;9208;42.688;23.404;2023-02-03T09:32:23;96107.19;;;6.25;83.03
18167;BME280;9208;42.688;23.404;2023-02-03T09:34:48;96106.31;;;6.28;82.40
18167;BME280;9208;42.688;23.404;2023-02-03T09:37:14;96111.56;;;6.35;82.16
18167;BME280;9208;42.688;23.404;2023-02-03T09:39:40;96120.28;;;6.43;80.59
18167;BME280;9208;42.688;23.404;2023-02-03T09:42:40;96114.41;;;6.44;80.47
18167;BME280;9208;42.688;23.404;2023-02-03T09:45:17;96106.88;;;6.48;82.03
18167;BME280;9208;42.688;23.404;2023-02-03T09:47:45;96096.41;;;6.34;80.83
18167;BME280;9208;42.688;23.404;2023-02-03T09:50:21;96115.25;;;6.41;80.00
18167;BME280;9208;42.688;23.404;2023-02-03T09:52:49;96113.41;;;6.38;80.65
18167;BME280;9208;42.688;23.404;2023-02-03T09:58:11;96095.75;;;6.43;80.79
18167;BME280;9208;42.688;23.404;2023-02-03T10:03:16;96085.41;;;6.50;81.88
18167;BME280;9208;42.688;23.404;2023-02-03T10:06:00;96100.44;;;6.42;81.29
18167;BME280;9208;42.688;23.404;2023-02-03T10:19:26;96153.19;;;6.48;75.43
18167;BME280;9208;42.688;23.404;2023-02-03T10:21:56;96171.38;;;6.51;73.68
18167;BME280;9208;42.688;23.404;2023-02-03T10:24:31;96176.59;;;6.46;74.12
18167;BME280;9208;42.688;23.404;2023-02-03T10:27:01;96172.56;;;6.50;73.67
18167;BME280;9208;42.688;23.404;2023-02-03T10:29:35;96163.84;;;6.55;74.41
18167;BME280;9208;42.688;23.404;2023-02-03T10:32:07;96160.03;;;6.53;73.63
18167;BME280;9208;42.688;23.404;2023-02-03T10:34:33;96169.31;;;6.55;73.21
18167;BME280;9208;42.688;23.404;2023-02-03T10:37:16;96186.19;;;6.50;71.37
18167;BME280;9208;42.688;23.404;2023-02-03T10:39:49;96177.72;;;6.61;71.87
18167;BME280;9208;42.688;23.404;2023-02-03T10:42:16;96190.25;;;6.58;70.71
18167;BME280;9208;42.688;23.404;2023-02-03T10:44:45;96174.75;;;6.55;70.73
18167;BME280;9208;42.688;23.404;2023-02-03T10:47:34;96169.00;;;6.66;70.73
18167;BME280;9208;42.688;23.404;2023-02-03T10:50:05;96169.09;;;6.62;72.30
18167;BME280;9208;42.688;23.404;2023-02-03T10:52:35;96158.63;;;6.73;72.75
18167;BME280;9208;42.688;23.404;2023-02-03T10:57:50;96167.81;;;6.79;70.99
18167;BME280;9208;42.688;23.404;2023-02-03T11:00:31;96198.75;;;6.73;69.70
18167;BME280;9208;42.688;23.404;2023-02-03T11:03:27;96183.03;;;6.64;69.97
18167;BME280;9208;42.688;23.404;2023-02-03T11:06:13;96182.72;;;6.62;70.30
18167;BME280;9208;42.688;23.404;2023-02-03T11:08:48;96184.59;;;6.65;69.38
18167;BME280;9208;42.688;23.404;2023-02-03T11:11:34;96193.28;;;6.60;68.60
18167;BME280;9208;42.688;23.404;2023-02-03T11:16:32;96194.06;;;6.61;68.30
18167;BME280;9208;42.688;23.404;2023-02-03T11:19:00;96229.47;;;6.61;66.12
18167;BME280;9208;42.688;23.404;2023-02-03T11:21:40;96233.38;;;6.47;65.76
18167;BME280;9208;42.688;23.404;2023-02-03T11:24:19;96229.84;;;6.34;65.83
18167;BME280;9208;42.688;23.404;2023-02-03T11:26:56;96213.25;;;6.29;66.45
18167;BME280;9208;42.688;23.404;2023-02-03T11:29:29;96195.97;;;6.35;66.88
18167;BME280;9208;42.688;23.404;2023-02-03T11:32:00;96198.97;;;6.25;67.20
18167;BME280;9208;42.688;23.404;2023-02-03T11:34:37;96205.00;;;6.32;66.25
18167;BME280;9208;42.688;23.404;2023-02-03T11:48:01;96173.66;;;6.40;66.74
18167;BME280;9208;42.688;23.404;2023-02-03T11:59:02;96180.28;;;6.39;64.19
18167;BME280;9208;42.688;23.404;2023-02-03T12:04:24;96160.03;;;6.40;66.95
18167;BME280;9208;42.688;23.404;2023-02-03T12:12:29;96213.66;;;6.56;61.99
18167;BME280;9208;42.688;23.404;2023-02-03T12:15:22;96214.09;;;6.67;61.92
18167;BME280;9208;42.688;23.404;2023-02-03T12:26:20;96215.91;;;6.86;62.72
18167;BME280;9208;42.688;23.404;2023-02-03T12:29:13;96209.34;;;6.83;62.41
18167;BME280;9208;42.688;23.404;2023-02-03T12:34:32;96243.34;;;6.91;59.81
18167;BME280;9208;42.688;23.404;2023-02-03T12:37:22;96272.81;;;6.96;57.67
18167;BME280;9208;42.688;23.404;2023-02-03T12:39:56;96265.63;;;6.90;57.94
18167;BME280;9208;42.688;23.404;2023-02-03T12:50:16;96253.72;;;6.96;57.52
18167;BME280;9208;42.688;23.404;2023-02-03T12:52:51;96233.47;;;6.97;58.50
18167;BME280;9208;42.688;23.404;2023-02-03T12:58:06;96204.88;;;6.89;58.68
18167;BME280;9208;42.688;23.404;2023-02-03T13:08:37;96159.22;;;6.93;62.70
18167;BME280;9208;42.688;23.404;2023-02-03T13:11:29;96157.69;;;6.92;62.61
18167;BME280;9208;42.688;23.404;2023-02-03T13:16:50;96165.94;;;6.76;61.52
18167;BME280;9208;42.688;23.404;2023-02-03T13:19:20;96160.81;;;6.78;62.90
18167;BME280;9208;42.688;23.404;2023-02-03T13:21:48;96164.00;;;6.77;62.42
18167;BME280;9208;42.688;23.404;2023-02-03T13:24:13;96164.75;;;6.77;61.82
18167;BME280;9208;42.688;23.404;2023-02-03T13:27:16;96180.13;;;6.84;60.50
18167;BME280;9208;42.688;23.404;2023-02-03T13:32:41;96156.56;;;6.65;63.37
18167;BME280;9208;42.688;23.404;2023-02-03T13:38:03;96135.88;;;6.67;65.01
18167;BME280;9208;42.688;23.404;2023-02-03T13:43:45;96124.00;;;6.61;64.78
18167;BME280;9208;42.688;23.404;2023-02-03T13:48:51;96125.41;;;6.66;64.71
18167;BME280;9208;42.688;23.404;2023-02-03T13:51:24;96129.75;;;6.63;64.70
18167;BME280;9208;42.688;23.404;2023-02-03T13:53:51;96125.41;;;6.66;64.92
18167;BME280;9208;42.688;23.404;2023-02-03T13:56:24;96120.94;;;6.59;65.15
18167;BME280;9208;42.688;23.404;2023-02-03T14:01:39;96096.22;;;6.54;66.33
18167;BME280;9208;42.688;23.404;2023-02-03T14:11:45;96069.84;;;6.38;69.64
18167;BME280;9208;42.688;23.404;2023-02-03T14:16:46;96062.41;;;6.39;69.98
18167;BME280;9208;42.688;23.404;2023-02-03T14:22:02;96059.59;;;6.42;69.87
18167;BME280;9208;42.688;23.404;2023-02-03T14:24:33;96054.91;;;6.43;70.44
18167;BME280;9208;42.688;23.404;2023-02-03T14:27:03;96054.59;;;6.41;69.19
18167;BME280;9208;42.688;23.404;2023-02-03T14:29:31;96058.50;;;6.40;69.47
18167;BME280;9208;42.688;23.404;2023-02-03T14:32:06;96050.22;;;6.43;70.20
18167;BME280;9208;42.688;23.404;2023-02-03T14:34:38;96048.38;;;6.40;70.14
18167;BME280;9208;42.688;23.404;2023-02-03T14:37:28;96055.69;;;6.43;70.18
18167;BME280;9208;42.688;23.404;2023-02-03T14:45:13;96044.03;;;6.30;70.16
18167;BME280;9208;42.688;23.404;2023-02-03T14:59:27;96012.88;;;6.19;71.26
18167;BME280;9208;42.688;23.404;2023-02-03T15:02:13;96017.00;;;6.23;71.55
18167;BME280;9208;42.688;23.404;2023-02-03T15:04:40;96010.25;;;6.15;71.42
18167;BME280;9208;42.688;23.404;2023-02-03T15:07:06;96011.56;;;6.23;70.36
18167;BME280;9208;42.688;23.404;2023-02-03T15:09:43;96019.28;;;6.25;70.06
18167;BME280;9208;42.688;23.404;2023-02-03T15:12:23;96015.69;;;6.15;69.42
18167;BME280;9208;42.688;23.404;2023-02-03T15:14:50;96013.19;;;6.21;69.15
18167;BME280;9208;42.688;23.404;2023-02-03T15:17:24;96003.94;;;6.18;69.20
18167;BME280;9208;42.688;23.404;2023-02-03T15:19:51;95996.75;;;6.12;69.27
18167;BME280;9208;42.688;23.404;2023-02-03T15:22:22;95993.91;;;6.15;68.79
18167;BME280;9208;42.688;23.404;2023-02-03T15:24:54;95985.75;;;6.15;69.61
18167;BME280;9208;42.688;23.404;2023-02-03T15:27:31;95995.09;;;6.14;69.98
18167;BME280;9208;42.688;23.404;2023-02-03T15:29:57;95980.53;;;6.08;69.56
18167;BME280;9208;42.688;23.404;2023-02-03T15:32:39;95984.47;;;6.07;69.91
18167;BME280;9208;42.688;23.404;2023-02-03T15:35:13;95978.13;;;5.98;69.93
18167;BME280;9208;42.688;23.404;2023-02-03T15:37:56;95978.91;;;5.98;69.15
18167;BME280;9208;42.688;23.404;2023-02-03T15:40:33;95986.19;;;6.01;68.75
18167;BME280;9208;42.688;23.404;2023-02-03T15:43:21;95974.63;;;5.97;68.66
18167;BME280;9208;42.688;23.404;2023-02-03T15:46:40;95977.47;;;6.06;68.42
18167;BME280;9208;42.688;23.404;2023-02-03T15:49:20;95979.09;;;6.04;68.93
18167;BME280;9208;42.688;23.404;2023-02-03T15:54:48;95965.06;;;6.05;70.32
18167;BME280;9208;42.688;23.404;2023-02-03T15:57:24;95962.56;;;5.98;70.12